Airfield :
LOGIN :

Register | Disclaimer

   EN    FR    IT 

 










Legend :    VFR   Marginal VFR   IFR   Intensive IFR   Very Intensive IFR
Visi :
Ceiling :
>= 8 km
>= 3000ft
5 to 8 km
1000 to 3000 ft
1500m to 5 km
500 to 1000 ft
800 to 1500m
200 to 500 ft
< 800m
< 200 ft
Symbols :   Thunderstorms  Fog  Heavy snow  Heavy precipitations  Wind > 20 kt
SIGMETs :     Misc.  Thunderstorms  Icing  Turbulence  Mountain Waves  Volcanic Ashes







- Airport Elevation : 616 ft
- IATA code : PUF
- Download approach charts


LFBP - Pau

CURRENT METAR :
  • 230230Z AUTO 11003KT CAVOK 12/10 Q1017 NOSIG

EXPIRED METARs :
  • 230200Z AUTO 15002KT CAVOK 12/10 Q1017 NOSIG
  • 230130Z AUTO 09003KT CAVOK 12/11 Q1017 NOSIG
  • 230100Z AUTO 12002KT CAVOK 13/11 Q1017 NOSIG
  • 230030Z AUTO 12002KT CAVOK 13/11 Q1017 NOSIG
  • 230000Z AUTO VRB02KT CAVOK 14/11 Q1017 NOSIG

TAF TAF LFBP
Valid from the 23 at 00:00 until the 24 at 00:00 UTC


222300Z 2300/2324 10005KT CAVOK
TEMPO 2302/2306 MIFG
BECMG 2312/2314 28010KT
TEMPO 2316/2324 -SHRA BKN050TCU
PROB30 2318/2324 -TSRA BKN010 BKN040CB
No reported NOTAMs for that airfield.



MET'MAP, your aeronautical weather chart ! - Copyright ORBIFLY December 2007 - Disclaimer

ORBIFLY MET'MAP TEAM :

Programming & Development : Alexandra Zaïnal
Concept & Development : Baudouin d'Aumeries
Co-Development & Prog : Marc-Olivier Méhu
Technical & hardware support : Manuel Goepfert

Contact : metmap@orbifly.com




SOURCES & CREDITS :

   NOAA